Lucas, KS (67648)

4:30 AM CDT on April 26, 2015 (GMT -0500)
Craven / Shiroky Farm | | Change Station
CLOSE
Current Station
Personal Weather Station
Location: Luray, KS
Elevation: 1730 ft
Nearby Weather Stations

Elev 1730 ft 39.02 °N, 98.67 °W | Updated 5 seconds ago

Overcast
Overcast
47.8 °F
Feels Like 45 °F
N
7.0
Wind Variable Wind from ENE
Gusts 16.0 mph

Today
High -- | Low -- °F
--% Chance of Precip.
Yesterday
High -- | Low -- °F
Precip. -- in
6:42 AM 8:21 PM
First Quarter, 54% visible
Pressure 29.81 in
Visibility 3.0 miles
Clouds Overcast 200 ft
Windchill 45 °F
Dew Point 36 °F
Humidity 63%
Rainfall 0.00 in
Snow Depth Not available.
UV 0 out of 12
Pollen 8.50 out of 12
Air Quality Not available.
Flu Activity Sporadic
METAR KRSL 260853Z AUTO 07015KT 3SM BR OVC002 08/08 A2982 RMK AO2 SLP094 T00830083 51005

More Conditions Fewer Conditions

Pressure 29.81 in
Visibility 3.0 miles
Clouds Overcast 200 ft
Windchill 45 °F
Dew Point 36 °F
Humidity 63%
Rainfall 0.00 in
Snow Depth Not available.
UV 0 out of 12
Pollen 8.50 out of 12
Air Quality Not available.
Flu Activity Sporadic
METAR KRSL 260853Z AUTO 07015KT 3SM BR OVC002 08/08 A2982 RMK AO2 SLP094 T00830083 51005

More Conditions Fewer Conditions

The full scope of the disaster following a powerful 7.8-magnitude earthquake in Nepal may not come into view for days, but global charities are already sending emergency aid. Click to see how you can help.

10-Day Weather Forecast

Almanac

Astronomy

Apr. 26, 2015 Rise Set
Actual Time
Civil Twilight
Nautical Twilight
Astronomical Twilight
Moon
Length of Visible Light
Length of Day
Tomorrow will be .
, % of the Moon is Illuminated

Today's Extremes

State Highs State Lows

Community

WunderPhotos

Upload Photos

1,816,953 photos uploaded!

WunderBlogs® & News

Nearby

Air Quality

  Air Quality AQ Index Pollutant
Not available.

Snow Depth

Station Depth Elevation

Earthquake Activity

City Distance Mag. Time & Date
Minimum magnitude displayed is 2.5.

Coastal Water Temperatures

Place Temperature

Stations

Nearby Weather Stations

Station Location Temp. Windchill Dew Point Humidity Wind Precip. Elev Updated Type